Avery, California
Current Conditions -  °F | °C
As of 2:55 PM on Wednesday 26 Nov 2014 (Local Time) from KO22 Reporting Station
Clear Clear  
Wind Chill: 72°   Ceiling: Unl
Heat Index: 72°   Visibility: 10mi
Dew Point: 54°   Wind: 0mph
Humidity: 53%   Direction: NA
Pressure: 30.24"   Gusts: NA
Location:  38.2°N, 120.37°W
Report Text: KO22 262255Z AUTO 00000KT 10SM CLR 22/12 A3024 RMK AO1
Loading
Personal Weather Stations






























Interactive Weather Map New forecast layout! Learn more

10-Day Weather Forecast

Advertisements
Track Severe Weather on mobile